Time;durP1;ratioP1;P1;durP2;ratioP2;P2;SDS_P1;SDS_P2;PMS_P1;PMS_P2;Temp;Humidity;BMP_temperature;BMP_pressure;BME280_temperature;BME280_humidity;BME280_pressure;Samples;Min_cycle;Max_cycle;Signal;HPM_P1;HPM_P2
2022/11/27 00:00:20;;;;;;;61.77;27.73;;;3.90;99.90;;;;;;5071629;28;20234;-73
2022/11/27 00:03:09;;;;;;;65.77;27.27;;;3.90;99.90;;;;;;5076905;28;20721;-73
2022/11/27 00:05:58;;;;;;;67.90;29.20;;;3.90;99.90;;;;;;5071568;28;20223;-73
2022/11/27 00:08:48;;;;;;;62.67;27.67;;;4.00;99.90;;;;;;5071458;28;20215;-73
2022/11/27 00:11:39;;;;;;;63.83;28.17;;;3.90;99.90;;;;;;5056445;28;20231;-71
2022/11/27 00:14:27;;;;;;;61.90;27.77;;;3.90;99.90;;;;;;5071370;28;20834;-73
2022/11/27 00:17:16;;;;;;;67.97;28.47;;;3.90;99.90;;;;;;5054503;28;20223;-73
2022/11/27 00:20:06;;;;;;;70.67;28.33;;;3.90;99.90;;;;;;5070839;28;20220;-73
2022/11/27 00:22:54;;;;;;;63.77;27.07;;;3.90;99.90;;;;;;5049347;28;20729;-73
2022/11/27 00:25:50;;;;;;;62.50;28.10;;;4.00;99.90;;;;;;5072837;28;20798;-72
2022/11/27 00:28:40;;;;;;;65.30;27.93;;;3.90;99.90;;;;;;5075071;28;20633;-73
2022/11/27 00:31:30;;;;;;;61.80;27.53;;;3.80;99.90;;;;;;5059734;28;20834;-73
2022/11/27 00:34:19;;;;;;;59.00;26.93;;;3.70;99.90;;;;;;5072263;28;20235;-74
2022/11/27 00:37:08;;;;;;;59.80;26.63;;;3.70;99.90;;;;;;5058640;28;20281;-74
2022/11/27 00:39:56;;;;;;;60.23;27.07;;;3.70;99.90;;;;;;5058618;28;20234;-74
2022/11/27 00:42:45;;;;;;;57.43;26.23;;;3.60;99.90;;;;;;5072816;28;20211;-75
2022/11/27 00:45:35;;;;;;;63.83;26.53;;;3.80;99.90;;;;;;5057619;28;20348;-75
2022/11/27 00:48:23;;;;;;;60.57;27.10;;;3.90;99.90;;;;;;5075092;28;20220;-73
2022/11/27 00:51:16;;;;;;;58.10;26.47;;;3.80;99.90;;;;;;5058549;28;20307;-73
2022/11/27 00:54:06;;;;;;;60.73;27.20;;;3.80;99.90;;;;;;5051830;28;20224;-74
2022/11/27 00:56:54;;;;;;;64.67;27.97;;;3.90;99.90;;;;;;5071291;28;20249;-74
2022/11/27 00:59:43;;;;;;;68.37;28.60;;;3.90;99.90;;;;;;5071769;28;20242;-74
2022/11/27 01:02:33;;;;;;;66.73;28.30;;;3.90;99.90;;;;;;5069787;28;20230;-74
2022/11/27 01:05:22;;;;;;;68.20;28.97;;;3.80;99.90;;;;;;5069267;28;20236;-73
2022/11/27 01:08:10;;;;;;;61.80;26.90;;;3.90;99.90;;;;;;5069110;28;20223;-74
2022/11/27 01:10:59;;;;;;;58.50;28.23;;;3.80;99.90;;;;;;5059440;28;20237;-72
2022/11/27 01:13:49;;;;;;;57.70;27.37;;;4.00;99.90;;;;;;5054753;28;20255;-72
2022/11/27 01:16:37;;;;;;;58.70;26.97;;;3.90;99.90;;;;;;5056986;28;20232;-73
2022/11/27 01:19:32;;;;;;;67.10;28.43;;;3.80;99.90;;;;;;5051481;28;20231;-74
2022/11/27 01:22:20;;;;;;;64.37;28.40;;;3.80;99.90;;;;;;5058758;28;20223;-74
2022/11/27 01:25:09;;;;;;;67.13;30.53;;;3.80;99.90;;;;;;5063169;28;20329;-74
2022/11/27 01:27:58;;;;;;;78.10;32.23;;;3.90;99.90;;;;;;5073281;28;20228;-75
2022/11/27 01:30:47;;;;;;;75.53;31.10;;;3.80;99.90;;;;;;5050452;28;20236;-75
2022/11/27 01:33:36;;;;;;;72.43;30.73;;;3.80;99.90;;;;;;5048403;28;20227;-73
2022/11/27 01:36:27;;;;;;;70.63;31.30;;;3.80;99.90;;;;;;5072951;28;20231;-73
2022/11/27 01:39:17;;;;;;;75.53;30.80;;;3.90;99.90;;;;;;5052934;28;20721;-74
2022/11/27 01:42:06;;;;;;;76.80;33.33;;;3.80;99.90;;;;;;5055925;28;20448;-74
2022/11/27 01:44:56;;;;;;;72.80;32.93;;;4.00;99.90;;;;;;5074762;28;20726;-73
2022/11/27 01:47:48;;;;;;;69.07;32.17;;;3.90;99.90;;;;;;5070858;28;20223;-74
2022/11/27 01:50:39;;;;;;;71.23;32.67;;;3.90;99.90;;;;;;5057598;28;20691;-76
2022/11/27 01:53:29;;;;;;;73.17;33.87;;;3.90;99.90;;;;;;5057261;28;20238;-73
2022/11/27 01:56:18;;;;;;;77.33;31.77;;;3.80;99.90;;;;;;5053647;28;20234;-74
2022/11/27 01:59:08;;;;;;;66.73;31.10;;;4.00;99.90;;;;;;5069691;28;20408;-72
2022/11/27 02:01:56;;;;;;;70.53;31.90;;;3.80;99.90;;;;;;5052199;28;20237;-74
2022/11/27 02:04:45;;;;;;;65.17;30.53;;;3.90;99.90;;;;;;5069608;28;20223;-74
2022/11/27 02:07:34;;;;;;;63.37;30.07;;;3.80;99.90;;;;;;5068986;28;20230;-74
2022/11/27 02:10:32;;;;;;;70.70;31.50;;;3.90;99.90;;;;;;5052490;28;20243;-74
2022/11/27 02:13:32;;;;;;;70.00;30.87;;;3.80;99.90;;;;;;5067071;28;20281;-74
2022/11/27 02:16:27;;;;;;;78.53;34.33;;;3.80;99.90;;;;;;5062898;28;20330;-73
2022/11/27 02:19:34;;;;;;;75.90;35.00;;;3.90;99.90;;;;;;5068549;28;20227;-73
2022/11/27 02:22:35;;;;;;;69.13;34.33;;;3.70;99.90;;;;;;5069829;28;20234;-73
2022/11/27 02:25:34;;;;;;;77.87;33.57;;;3.70;99.90;;;;;;5068988;28;20233;-74
2022/11/27 02:28:41;;;;;;;73.93;33.90;;;3.80;99.90;;;;;;5056232;28;20224;-73
2022/11/27 02:31:38;;;;;;;74.37;33.83;;;3.80;99.90;;;;;;5070757;28;20242;-73
2022/11/27 02:34:34;;;;;;;72.07;33.90;;;3.80;99.90;;;;;;5059211;28;20234;-73
2022/11/27 02:37:32;;;;;;;74.93;33.57;;;3.90;99.90;;;;;;5069914;28;20250;-72
2022/11/27 02:40:27;;;;;;;68.57;33.93;;;4.00;99.90;;;;;;5053933;28;20465;-72
2022/11/27 02:43:19;;;;;;;83.07;35.30;;;3.90;99.90;;;;;;5056519;28;20630;-72
2022/11/27 02:46:10;;;;;;;75.03;34.90;;;3.80;99.90;;;;;;5051715;28;20227;-73
2022/11/27 02:49:05;;;;;;;80.60;35.83;;;3.80;99.90;;;;;;5053881;28;20233;-72
2022/11/27 02:51:57;;;;;;;79.37;36.73;;;3.80;99.90;;;;;;5052856;28;20246;-74
2022/11/27 02:54:50;;;;;;;81.93;38.07;;;3.80;99.90;;;;;;5052788;28;20461;-72
2022/11/27 02:57:40;;;;;;;81.70;36.93;;;3.90;99.90;;;;;;5070479;28;20314;-72
2022/11/27 03:00:29;;;;;;;80.83;39.63;;;3.90;99.90;;;;;;5071823;28;20239;-73
2022/11/27 03:03:24;;;;;;;91.67;40.23;;;3.90;99.90;;;;;;5069285;28;20231;-74
2022/11/27 03:06:20;;;;;;;84.97;39.67;;;3.90;99.90;;;;;;5042368;28;20223;-73
2022/11/27 03:09:12;;;;;;;94.63;42.70;;;3.80;99.90;;;;;;5069808;28;20706;-72
2022/11/27 03:12:01;;;;;;;97.63;43.17;;;3.90;99.90;;;;;;5055647;28;20231;-71
2022/11/27 03:14:50;;;;;;;95.80;42.97;;;4.00;99.90;;;;;;5071050;28;20590;-73
2022/11/27 03:17:52;;;;;;;94.33;42.27;;;3.70;99.90;;;;;;5070475;28;20234;-72
2022/11/27 03:20:44;;;;;;;89.97;40.90;;;3.50;99.90;;;;;;5056481;28;20302;-71
2022/11/27 03:23:34;;;;;;;91.37;40.67;;;3.60;99.90;;;;;;5071614;28;20234;-73
2022/11/27 03:26:23;;;;;;;97.57;41.00;;;3.50;99.90;;;;;;5069559;28;20243;-72
2022/11/27 03:29:16;;;;;;;95.93;40.67;;;3.40;99.90;;;;;;5054884;28;20224;-73
2022/11/27 03:32:05;;;;;;;92.10;40.47;;;3.40;99.90;;;;;;5068027;28;20268;-73
2022/11/27 03:34:55;;;;;;;97.97;40.93;;;3.30;99.90;;;;;;5071981;28;20219;-73
2022/11/27 03:37:43;;;;;;;93.93;41.13;;;3.30;99.90;;;;;;5055661;28;20700;-72
2022/11/27 03:40:45;;;;;;;99.00;41.07;;;3.50;99.90;;;;;;5055595;28;20223;-72
2022/11/27 03:43:39;;;;;;;89.00;40.73;;;3.70;99.90;;;;;;5066621;28;20215;-73
2022/11/27 03:46:36;;;;;;;97.20;40.13;;;3.50;99.90;;;;;;5054248;28;21520;-73
2022/11/27 03:49:34;;;;;;;95.83;41.33;;;3.50;99.90;;;;;;5048397;28;20251;-70
2022/11/27 03:52:31;;;;;;;96.20;39.57;;;3.60;99.90;;;;;;5057501;28;20224;-73
2022/11/27 03:55:28;;;;;;;95.83;40.03;;;3.70;99.90;;;;;;5071016;28;20361;-73
2022/11/27 03:58:23;;;;;;;95.60;41.20;;;3.80;99.90;;;;;;5058923;28;21012;-73
2022/11/27 04:01:13;;;;;;;95.63;41.30;;;3.90;99.90;;;;;;5054431;28;20228;-74
2022/11/27 04:04:02;;;;;;;100.47;41.00;;;3.80;99.90;;;;;;5072973;28;20231;-72
2022/11/27 04:06:51;;;;;;;95.47;41.97;;;3.80;99.90;;;;;;5072694;28;20224;-73
2022/11/27 04:09:39;;;;;;;100.40;42.23;;;3.80;99.90;;;;;;5081236;28;20233;-74
2022/11/27 04:12:28;;;;;;;103.47;40.83;;;3.70;99.90;;;;;;5059588;28;20235;-72
2022/11/27 04:15:18;;;;;;;103.67;41.80;;;3.70;99.90;;;;;;5068985;28;20219;-75
2022/11/27 04:18:07;;;;;;;101.40;41.57;;;3.60;99.90;;;;;;5071539;28;20310;-74
2022/11/27 04:20:56;;;;;;;101.10;40.03;;;3.50;99.90;;;;;;5068389;28;20807;-74
2022/11/27 04:23:45;;;;;;;103.93;41.27;;;3.50;99.90;;;;;;5072289;28;20222;-74
2022/11/27 04:26:34;;;;;;;105.13;42.13;;;3.50;99.90;;;;;;5071511;28;20243;-74
2022/11/27 04:29:22;;;;;;;93.57;40.47;;;3.70;99.90;;;;;;5070909;28;20231;-74
2022/11/27 04:32:12;;;;;;;104.70;42.10;;;3.70;99.90;;;;;;5070810;28;20220;-73
2022/11/27 04:35:01;;;;;;;96.70;40.97;;;3.80;99.90;;;;;;5074823;28;20310;-72
2022/11/27 04:37:50;;;;;;;95.90;41.87;;;3.90;99.90;;;;;;5064235;28;20264;-74
2022/11/27 04:40:39;;;;;;;93.53;39.50;;;3.80;99.90;;;;;;5073844;28;20227;-73
2022/11/27 04:43:28;;;;;;;96.27;42.27;;;3.90;99.90;;;;;;5058436;28;20740;-74
2022/11/27 04:46:17;;;;;;;96.57;39.63;;;3.80;99.90;;;;;;5055091;28;21344;-71
2022/11/27 04:49:07;;;;;;;98.10;40.87;;;3.80;99.90;;;;;;5059421;28;20224;-72
2022/11/27 04:51:56;;;;;;;96.53;39.50;;;3.70;99.90;;;;;;5068858;28;20227;-73
2022/11/27 04:54:45;;;;;;;86.80;38.27;;;3.70;99.90;;;;;;5050219;28;20224;-74
2022/11/27 04:57:33;;;;;;;93.80;39.10;;;3.70;99.90;;;;;;5054597;28;20238;-73
2022/11/27 05:00:22;;;;;;;95.77;37.40;;;3.60;99.90;;;;;;5051586;28;20733;-72
2022/11/27 05:03:11;;;;;;;89.20;38.40;;;3.60;99.90;;;;;;5055433;28;21097;-73
2022/11/27 05:06:01;;;;;;;93.13;38.77;;;3.60;99.90;;;;;;5055535;28;20962;-73
2022/11/27 05:08:50;;;;;;;85.27;38.97;;;3.80;99.90;;;;;;5072021;28;20234;-73
2022/11/27 05:11:39;;;;;;;91.93;39.27;;;3.80;99.90;;;;;;5071588;28;20219;-73
2022/11/27 05:14:28;;;;;;;96.07;38.63;;;3.70;99.90;;;;;;5059705;28;20223;-73
2022/11/27 05:17:16;;;;;;;88.73;38.10;;;3.70;99.90;;;;;;5056001;28;20752;-73
2022/11/27 05:20:06;;;;;;;93.40;39.60;;;3.80;99.90;;;;;;5057020;28;20563;-72
2022/11/27 05:22:56;;;;;;;93.57;39.47;;;3.90;99.90;;;;;;5070162;28;20231;-72
2022/11/27 05:25:45;;;;;;;89.87;37.20;;;3.90;99.90;;;;;;5070209;28;20230;-72
2022/11/27 05:28:33;;;;;;;87.20;38.63;;;3.80;99.90;;;;;;5070145;28;20665;-73
2022/11/27 05:31:22;;;;;;;89.30;39.33;;;3.90;99.90;;;;;;5051494;28;20248;-72
2022/11/27 05:34:12;;;;;;;93.70;39.67;;;4.00;99.90;;;;;;5065477;28;20251;-73
2022/11/27 05:37:00;;;;;;;87.27;37.97;;;4.00;99.90;;;;;;5070614;28;20257;-72
2022/11/27 05:39:50;;;;;;;84.53;37.50;;;4.10;99.90;;;;;;5053627;28;20234;-73
2022/11/27 05:42:39;;;;;;;92.27;38.57;;;4.00;99.90;;;;;;5052009;28;20728;-72
2022/11/27 05:45:27;;;;;;;91.60;37.47;;;4.00;99.90;;;;;;5065947;28;20757;-71
2022/11/27 05:48:16;;;;;;;84.23;36.30;;;4.10;99.90;;;;;;5070288;28;20239;-72
2022/11/27 05:51:05;;;;;;;93.13;38.27;;;4.20;99.90;;;;;;5055384;28;20576;-71
2022/11/27 05:53:53;;;;;;;92.57;37.70;;;4.20;99.90;;;;;;5069645;28;20713;-74
2022/11/27 05:56:43;;;;;;;90.10;39.53;;;4.10;99.90;;;;;;5064817;28;20231;-73
2022/11/27 05:59:32;;;;;;;94.70;39.00;;;4.10;99.90;;;;;;5069826;28;20223;-72
2022/11/27 06:02:20;;;;;;;87.60;38.33;;;4.00;99.90;;;;;;5069559;28;20219;-73
2022/11/27 06:05:16;;;;;;;95.67;39.17;;;4.00;99.90;;;;;;5047754;28;20227;-73
2022/11/27 06:08:05;;;;;;;100.03;39.70;;;4.00;99.90;;;;;;5054314;28;21411;-73
2022/11/27 06:10:54;;;;;;;119.07;42.33;;;3.70;99.90;;;;;;5052277;28;20230;-73
2022/11/27 06:13:44;;;;;;;102.93;40.60;;;3.70;99.90;;;;;;5050005;28;20234;-72
2022/11/27 06:16:33;;;;;;;97.73;41.07;;;3.70;99.90;;;;;;5064136;28;20231;-73
2022/11/27 06:19:22;;;;;;;105.03;40.47;;;3.60;99.90;;;;;;5050993;28;21461;-73
2022/11/27 06:22:10;;;;;;;102.87;38.73;;;3.50;99.90;;;;;;5062098;28;20235;-72
2022/11/27 06:24:59;;;;;;;106.90;41.27;;;3.80;99.90;;;;;;5067222;28;20744;-73
2022/11/27 06:27:47;;;;;;;104.57;39.43;;;3.80;99.90;;;;;;5064542;28;20219;-73
2022/11/27 06:30:38;;;;;;;106.83;41.10;;;3.80;99.90;;;;;;5066709;28;20223;-73
2022/11/27 06:33:27;;;;;;;113.70;41.10;;;3.80;99.90;;;;;;5066868;28;20294;-70
2022/11/27 06:36:16;;;;;;;110.00;41.23;;;3.80;99.90;;;;;;5073161;28;20424;-73
2022/11/27 06:39:06;;;;;;;110.37;40.10;;;3.80;99.90;;;;;;5068231;28;20428;-75
2022/11/27 06:41:55;;;;;;;115.40;41.37;;;3.80;99.90;;;;;;5054265;28;20238;-72
2022/11/27 06:44:44;;;;;;;125.00;43.80;;;3.80;99.90;;;;;;5067468;28;20349;-74
2022/11/27 06:47:34;;;;;;;136.30;43.97;;;3.80;99.90;;;;;;5053417;28;20338;-74
2022/11/27 06:50:23;;;;;;;131.33;43.93;;;3.80;99.90;;;;;;5067886;28;20243;-74
2022/11/27 06:53:11;;;;;;;125.73;44.47;;;3.80;99.90;;;;;;5070135;28;20709;-75
2022/11/27 06:56:02;;;;;;;129.93;44.13;;;3.80;99.90;;;;;;5069565;28;21460;-74
2022/11/27 06:58:51;;;;;;;130.63;45.13;;;3.90;99.90;;;;;;5069482;28;20223;-74
2022/11/27 07:01:41;;;;;;;125.57;42.37;;;3.90;99.90;;;;;;5066378;28;20269;-71
2022/11/27 07:04:31;;;;;;;126.07;44.50;;;3.90;99.90;;;;;;5066175;28;20223;-71
2022/11/27 07:07:20;;;;;;;127.67;45.70;;;3.80;99.90;;;;;;5071617;28;20216;-71
2022/11/27 07:10:09;;;;;;;123.47;43.43;;;3.70;99.90;;;;;;5053538;28;20219;-72
2022/11/27 07:12:58;;;;;;;122.87;43.73;;;3.80;99.90;;;;;;5069464;28;20366;-72
2022/11/27 07:15:46;;;;;;;106.37;41.73;;;3.90;99.90;;;;;;5052569;28;20254;-73
2022/11/27 07:18:37;;;;;;;117.73;43.40;;;3.90;99.90;;;;;;5057280;28;20230;-72
2022/11/27 07:21:27;;;;;;;112.40;41.40;;;3.80;99.90;;;;;;5066276;28;20330;-74
2022/11/27 07:24:16;;;;;;;111.83;42.23;;;3.80;99.90;;;;;;5047648;28;20220;-74
2022/11/27 07:27:04;;;;;;;107.13;41.23;;;3.80;99.90;;;;;;5065726;28;20742;-73
2022/11/27 07:29:53;;;;;;;107.80;41.80;;;3.80;99.90;;;;;;5069964;28;20702;-72
2022/11/27 07:32:41;;;;;;;110.80;41.10;;;3.80;99.90;;;;;;5060606;28;20228;-74
2022/11/27 07:35:33;;;;;;;108.73;40.77;;;3.90;99.90;;;;;;5058220;28;20227;-73
2022/11/27 07:38:23;;;;;;;89.63;37.93;;;3.90;99.90;;;;;;5059203;28;20228;-74
2022/11/27 07:41:13;;;;;;;108.27;40.93;;;4.00;99.90;;;;;;5052774;28;20218;-74
2022/11/27 07:44:03;;;;;;;95.53;38.53;;;4.00;99.90;;;;;;5066916;28;20224;-74
2022/11/27 07:46:52;;;;;;;103.60;41.13;;;4.10;99.90;;;;;;5057843;28;20755;-73
2022/11/27 07:49:40;;;;;;;100.40;41.17;;;4.00;99.90;;;;;;5068810;28;20224;-74
2022/11/27 07:52:29;;;;;;;103.03;41.30;;;4.00;99.90;;;;;;5063588;28;20224;-72
2022/11/27 07:55:19;;;;;;;99.87;39.20;;;4.10;99.90;;;;;;5064052;28;20219;-75
2022/11/27 07:58:08;;;;;;;98.37;40.73;;;4.00;99.90;;;;;;5080274;28;20789;-76
2022/11/27 08:00:57;;;;;;;99.33;39.07;;;4.00;99.90;;;;;;5066338;28;20219;-74
2022/11/27 08:03:46;;;;;;;97.00;39.60;;;4.10;99.90;;;;;;5082452;28;20767;-73
2022/11/27 08:06:35;;;;;;;100.20;38.83;;;4.10;99.90;;;;;;5073339;28;20781;-75
2022/11/27 08:09:23;;;;;;;104.57;39.03;;;4.00;99.90;;;;;;5053535;28;20238;-73
2022/11/27 08:12:13;;;;;;;91.83;38.27;;;4.00;99.90;;;;;;5062063;28;20238;-73
2022/11/27 08:15:03;;;;;;;96.40;39.57;;;4.10;99.90;;;;;;5079041;28;20223;-74
2022/11/27 08:17:52;;;;;;;96.50;38.27;;;4.20;99.90;;;;;;5064603;28;20737;-76
2022/11/27 08:20:40;;;;;;;100.77;39.27;;;4.10;99.90;;;;;;5077746;28;20219;-72
2022/11/27 08:23:29;;;;;;;91.87;37.97;;;4.30;99.90;;;;;;5065096;28;20367;-73
2022/11/27 08:26:17;;;;;;;96.73;38.10;;;4.30;99.90;;;;;;5072345;28;20235;-73
2022/11/27 08:29:10;;;;;;;98.90;38.43;;;4.40;99.90;;;;;;5059447;28;20277;-73
2022/11/27 08:31:59;;;;;;;95.03;40.27;;;4.30;99.90;;;;;;5075398;28;20234;-74
2022/11/27 08:34:47;;;;;;;95.43;39.93;;;4.30;99.90;;;;;;5077602;28;20318;-73
2022/11/27 08:37:36;;;;;;;94.30;39.23;;;4.30;99.90;;;;;;5067032;28;20223;-72
2022/11/27 08:40:25;;;;;;;95.50;40.43;;;4.30;99.90;;;;;;5060892;28;20272;-73
2022/11/27 08:43:14;;;;;;;93.83;40.07;;;4.40;99.90;;;;;;5079153;28;20250;-73
2022/11/27 08:46:05;;;;;;;98.83;39.33;;;4.50;99.90;;;;;;5061589;28;20231;-74
2022/11/27 08:48:54;;;;;;;106.23;41.57;;;4.50;99.90;;;;;;5062924;28;20239;-74
2022/11/27 08:51:42;;;;;;;94.97;39.60;;;4.70;99.90;;;;;;5081413;28;20226;-74
2022/11/27 08:54:31;;;;;;;102.53;40.87;;;4.50;99.90;;;;;;5082902;28;20220;-74
2022/11/27 08:57:20;;;;;;;98.07;40.37;;;4.30;99.90;;;;;;5076196;28;20223;-73
2022/11/27 09:00:09;;;;;;;95.17;39.90;;;4.20;99.90;;;;;;5060834;28;20235;-74
2022/11/27 09:03:00;;;;;;;93.40;39.63;;;4.30;99.90;;;;;;5063562;28;20767;-74
2022/11/27 09:05:49;;;;;;;85.40;38.87;;;4.40;99.90;;;;;;5076300;28;20748;-73
2022/11/27 09:08:38;;;;;;;92.23;39.40;;;4.40;99.90;;;;;;5076342;28;20216;-74
2022/11/27 09:11:29;;;;;;;90.37;39.77;;;4.50;99.90;;;;;;5069054;28;20708;-72
2022/11/27 09:14:18;;;;;;;93.30;40.17;;;4.60;99.90;;;;;;5063346;28;20564;-73
2022/11/27 09:17:07;;;;;;;87.30;39.77;;;4.50;99.90;;;;;;5062562;28;20223;-74
2022/11/27 09:19:57;;;;;;;94.57;40.67;;;4.60;99.90;;;;;;5051705;28;20219;-74
2022/11/27 09:22:46;;;;;;;84.37;39.20;;;4.70;99.90;;;;;;5054048;28;20235;-75
2022/11/27 09:25:37;;;;;;;87.90;38.47;;;4.60;99.90;;;;;;5074119;28;20217;-75
2022/11/27 09:28:26;;;;;;;84.43;39.07;;;4.60;99.90;;;;;;5062361;28;20227;-74
2022/11/27 09:31:21;;;;;;;87.20;39.57;;;4.70;99.90;;;;;;5077076;28;20216;-76
2022/11/27 09:34:10;;;;;;;88.77;39.50;;;4.70;99.90;;;;;;5064157;28;20301;-74
2022/11/27 09:37:00;;;;;;;91.40;40.40;;;4.70;99.90;;;;;;5059779;28;20223;-73
2022/11/27 09:39:48;;;;;;;85.40;38.40;;;4.60;99.90;;;;;;5081358;28;20207;-75
2022/11/27 09:42:42;;;;;;;88.57;39.60;;;4.70;99.90;;;;;;5080087;28;20220;-74
2022/11/27 09:45:32;;;;;;;84.13;39.10;;;4.80;99.90;;;;;;5079670;28;20223;-75
2022/11/27 09:48:25;;;;;;;89.60;39.60;;;4.70;99.90;;;;;;5068509;28;20231;-73
2022/11/27 09:51:23;;;;;;;92.27;40.77;;;4.80;99.90;;;;;;5073372;28;20224;-73
2022/11/27 09:54:20;;;;;;;85.57;39.07;;;4.70;99.90;;;;;;5076599;28;20224;-73
2022/11/27 09:57:14;;;;;;;79.30;37.37;;;4.80;99.90;;;;;;5075717;28;20315;-75
2022/11/27 10:00:06;;;;;;;86.00;38.63;;;4.80;99.90;;;;;;5071893;28;20219;-74
2022/11/27 10:02:55;;;;;;;85.37;38.87;;;4.90;99.90;;;;;;5068737;28;20294;-73
2022/11/27 10:05:52;;;;;;;83.47;38.03;;;5.00;99.90;;;;;;5054916;28;22566;-74
2022/11/27 10:08:47;;;;;;;83.60;39.47;;;5.00;99.90;;;;;;5076767;28;20265;-73
2022/11/27 10:11:47;;;;;;;81.77;39.33;;;5.10;99.90;;;;;;5074408;28;20224;-73
2022/11/27 10:14:52;;;;;;;83.17;39.60;;;5.30;99.90;;;;;;5074781;28;20600;-72
2022/11/27 10:17:47;;;;;;;89.50;40.80;;;5.30;99.90;;;;;;5077244;28;20223;-78
2022/11/27 10:20:43;;;;;;;84.47;40.07;;;5.30;99.90;;;;;;5061445;28;20905;-74
2022/11/27 10:23:41;;;;;;;83.80;39.20;;;5.40;99.90;;;;;;5075951;28;20220;-75
2022/11/27 10:26:36;;;;;;;86.30;39.67;;;5.50;99.90;;;;;;5071509;28;20215;-73
2022/11/27 10:29:39;;;;;;;84.40;41.40;;;5.50;99.90;;;;;;5074687;28;20274;-74
2022/11/27 10:32:36;;;;;;;91.60;41.63;;;5.50;99.90;;;;;;5059933;28;20927;-73
2022/11/27 10:35:44;;;;;;;91.67;42.00;;;5.40;99.90;;;;;;5059682;28;20350;-76
2022/11/27 10:38:39;;;;;;;85.87;41.10;;;5.30;99.90;;;;;;5063009;28;20216;-73
2022/11/27 10:41:34;;;;;;;82.23;39.47;;;5.40;99.90;;;;;;5074217;28;20220;-72
2022/11/27 10:44:44;;;;;;;84.73;40.57;;;5.60;99.90;;;;;;5062544;28;20227;-75
2022/11/27 10:47:33;;;;;;;82.97;39.70;;;5.80;99.90;;;;;;5075764;28;20239;-75
2022/11/27 10:50:22;;;;;;;84.20;40.50;;;5.80;99.90;;;;;;5080065;28;20231;-75
2022/11/27 10:53:15;;;;;;;82.20;39.30;;;5.80;99.90;;;;;;5074254;28;20220;-77
2022/11/27 10:56:21;;;;;;;85.07;39.90;;;5.80;99.90;;;;;;5076742;28;20415;-75
2022/11/27 10:59:13;;;;;;;77.57;39.13;;;5.80;99.90;;;;;;5055831;28;20223;-74
2022/11/27 11:02:06;;;;;;;81.17;39.07;;;5.80;99.90;;;;;;5077611;28;20224;-73
2022/11/27 11:04:55;;;;;;;78.90;39.43;;;5.80;99.90;;;;;;5058939;28;20249;-73
2022/11/27 11:08:06;;;;;;;77.27;37.60;;;5.80;99.90;;;;;;5060715;28;20372;-74
2022/11/27 11:10:59;;;;;;;74.50;36.57;;;5.80;99.90;;;;;;5074074;28;20227;-77
2022/11/27 11:13:49;;;;;;;77.10;38.63;;;5.60;99.90;;;;;;5080956;28;20586;-74
2022/11/27 11:16:43;;;;;;;73.23;37.43;;;5.60;99.90;;;;;;5076413;28;20231;-74
2022/11/27 11:19:36;;;;;;;75.30;37.90;;;5.60;99.90;;;;;;5076852;28;20211;-74
2022/11/27 11:22:25;;;;;;;73.30;37.97;;;5.60;99.90;;;;;;5079080;28;20226;-74
2022/11/27 11:25:18;;;;;;;75.87;37.73;;;5.70;99.90;;;;;;5077579;28;20298;-78
2022/11/27 11:28:06;;;;;;;75.27;37.90;;;5.90;99.90;;;;;;5071302;28;20231;-75
2022/11/27 11:31:03;;;;;;;83.47;39.90;;;5.90;99.90;;;;;;5075182;28;20216;-75
2022/11/27 11:33:56;;;;;;;83.07;38.97;;;6.00;99.90;;;;;;5081160;28;20223;-75
2022/11/27 11:36:56;;;;;;;76.60;38.20;;;6.10;99.90;;;;;;5079729;28;20760;-74
2022/11/27 11:39:47;;;;;;;82.30;40.23;;;6.10;99.90;;;;;;5054084;28;20272;-75
2022/11/27 11:42:37;;;;;;;77.17;39.27;;;6.10;99.90;;;;;;5077935;28;20227;-73
2022/11/27 11:45:28;;;;;;;75.90;38.17;;;6.10;99.90;;;;;;5064001;28;20227;-72
2022/11/27 11:48:23;;;;;;;76.67;38.70;;;6.00;99.90;;;;;;5075691;28;21389;-75
2022/11/27 11:51:15;;;;;;;71.90;37.43;;;6.00;99.90;;;;;;5064542;28;20220;-74
2022/11/27 11:54:18;;;;;;;78.47;39.20;;;6.20;99.90;;;;;;5061704;28;21114;-74
2022/11/27 11:57:21;;;;;;;73.43;38.17;;;6.10;99.90;;;;;;5061670;28;20230;-74
2022/11/27 12:00:14;;;;;;;80.53;39.87;;;6.10;99.90;;;;;;5063264;28;20237;-73
2022/11/27 12:03:18;;;;;;;76.53;39.73;;;6.20;99.90;;;;;;5076964;28;20219;-75
2022/11/27 12:06:32;;;;;;;81.47;40.20;;;6.20;99.90;;;;;;5065517;28;20222;-74
2022/11/27 12:09:41;;;;;;;79.03;40.73;;;6.20;99.90;;;;;;5081511;28;20230;-74
2022/11/27 12:12:45;;;;;;;81.40;42.37;;;6.20;99.90;;;;;;5062042;28;20216;-75
2022/11/27 12:15:42;;;;;;;73.93;40.30;;;6.30;99.90;;;;;;5052990;28;20219;-75
2022/11/27 12:18:45;;;;;;;73.10;36.93;;;6.20;99.90;;;;;;5075986;28;20302;-75
2022/11/27 12:21:44;;;;;;;69.43;39.37;;;6.20;99.90;;;;;;5063876;28;20220;-75
2022/11/27 12:24:43;;;;;;;77.50;39.73;;;6.20;99.90;;;;;;5075445;28;20333;-75
2022/11/27 12:27:43;;;;;;;72.73;39.37;;;6.40;99.90;;;;;;5078684;28;20249;-75
2022/11/27 12:30:41;;;;;;;72.83;38.00;;;6.30;99.90;;;;;;5074554;28;20224;-75
2022/11/27 12:33:50;;;;;;;63.90;37.10;;;6.30;99.90;;;;;;5067581;28;20314;-75
2022/11/27 12:36:59;;;;;;;70.03;37.33;;;6.30;99.90;;;;;;5066761;28;20223;-78
2022/11/27 12:40:03;;;;;;;69.90;37.27;;;6.30;99.90;;;;;;5068621;28;20211;-80
2022/11/27 12:43:05;;;;;;;75.03;36.73;;;6.30;99.90;;;;;;5079886;28;20751;-75
2022/11/27 12:46:00;;;;;;;74.07;39.17;;;6.40;99.90;;;;;;5074926;28;20216;-74
2022/11/27 12:48:55;;;;;;;65.73;36.00;;;6.30;99.90;;;;;;5052001;28;20232;-73
2022/11/27 12:51:49;;;;;;;77.43;36.37;;;6.20;99.90;;;;;;5046180;28;20228;-76
2022/11/27 12:54:43;;;;;;;67.70;36.77;;;6.30;99.90;;;;;;5059075;28;20265;-77
2022/11/27 12:57:37;;;;;;;72.83;37.80;;;6.30;99.90;;;;;;5062480;28;20240;-75
2022/11/27 13:00:29;;;;;;;70.50;38.33;;;6.40;99.90;;;;;;5057297;28;20231;-72
2022/11/27 13:03:24;;;;;;;63.73;35.53;;;6.40;99.90;;;;;;5059622;28;21001;-74
2022/11/27 13:06:20;;;;;;;69.27;36.43;;;6.40;99.90;;;;;;5054827;28;20693;-73
2022/11/27 13:09:15;;;;;;;64.87;35.30;;;6.20;99.90;;;;;;5042897;28;20228;-73
2022/11/27 13:12:04;;;;;;;65.03;36.27;;;6.10;99.90;;;;;;5054720;28;20650;-75
2022/11/27 13:15:01;;;;;;;63.70;35.80;;;6.10;99.90;;;;;;5059906;28;20235;-74
2022/11/27 13:17:56;;;;;;;68.50;36.43;;;6.10;99.90;;;;;;5048691;28;20220;-74
2022/11/27 13:20:46;;;;;;;67.53;37.17;;;6.10;99.90;;;;;;5046591;28;20228;-71
2022/11/27 13:23:40;;;;;;;66.47;34.93;;;6.10;99.90;;;;;;5059071;28;20256;-72
2022/11/27 13:26:33;;;;;;;63.80;34.87;;;6.20;99.90;;;;;;5056929;28;20215;-73
2022/11/27 13:29:27;;;;;;;62.13;34.67;;;6.20;99.90;;;;;;5058567;28;20602;-74
2022/11/27 13:32:22;;;;;;;59.27;33.37;;;6.20;99.90;;;;;;5039180;28;20235;-74
2022/11/27 13:35:21;;;;;;;67.60;36.27;;;6.20;99.90;;;;;;5041400;28;20571;-74
2022/11/27 13:38:12;;;;;;;64.87;34.87;;;6.10;99.90;;;;;;5036267;28;20225;-74
2022/11/27 13:41:04;;;;;;;60.63;33.83;;;6.20;99.90;;;;;;5041991;28;20358;-74
2022/11/27 13:43:53;;;;;;;64.83;35.10;;;6.30;99.90;;;;;;5045435;28;20604;-73
2022/11/27 13:46:47;;;;;;;58.30;33.93;;;6.30;99.90;;;;;;5036942;28;20239;-75
2022/11/27 13:49:37;;;;;;;71.40;35.40;;;6.40;99.90;;;;;;5063063;28;20223;-74
2022/11/27 13:52:26;;;;;;;64.60;36.13;;;6.40;99.90;;;;;;5075310;28;20216;-74
2022/11/27 13:55:25;;;;;;;66.40;35.57;;;6.50;99.90;;;;;;5064888;28;20298;-74
2022/11/27 13:58:14;;;;;;;60.50;35.83;;;6.40;99.90;;;;;;5078064;28;20224;-71
2022/11/27 14:01:14;;;;;;;64.60;35.03;;;6.40;99.90;;;;;;5077606;28;20682;-73
2022/11/27 14:04:08;;;;;;;67.87;36.40;;;6.40;99.90;;;;;;5079564;28;20227;-74
2022/11/27 14:07:05;;;;;;;68.00;35.93;;;6.40;99.90;;;;;;5071695;28;20291;-74
2022/11/27 14:09:55;;;;;;;67.27;35.23;;;6.40;99.90;;;;;;5079902;28;20223;-75
2022/11/27 14:12:54;;;;;;;69.67;36.67;;;6.50;99.90;;;;;;5076341;28;20229;-74
2022/11/27 14:15:43;;;;;;;67.40;37.97;;;6.50;99.90;;;;;;5073348;28;21193;-74
2022/11/27 14:18:31;;;;;;;63.00;36.50;;;6.60;99.90;;;;;;5064735;28;20237;-75
2022/11/27 14:21:26;;;;;;;65.43;36.60;;;6.50;99.90;;;;;;5065493;28;20740;-74
2022/11/27 14:24:33;;;;;;;65.87;36.67;;;6.40;99.90;;;;;;5060623;28;20219;-74
2022/11/27 14:27:24;;;;;;;69.83;37.50;;;6.30;99.90;;;;;;5066771;28;20219;-74
2022/11/27 14:30:24;;;;;;;66.60;37.03;;;6.20;99.90;;;;;;5061686;28;20226;-74
2022/11/27 14:33:19;;;;;;;69.23;36.73;;;6.30;99.90;;;;;;5076185;28;20227;-73
2022/11/27 14:36:08;;;;;;;62.30;35.57;;;6.20;99.90;;;;;;5067283;28;20238;-76
2022/11/27 14:38:57;;;;;;;63.93;36.80;;;6.20;99.90;;;;;;5064770;28;20232;-80
2022/11/27 14:41:56;;;;;;;65.80;37.13;;;6.20;99.90;;;;;;5073256;28;20219;-78